sensor_id;sensor_type;location;lat;lon;timestamp;P1;durP1;ratioP1;P2;durP2;ratioP2
33279;SDS011;20403;43.114;12.434;2023-04-15T00:02:14;4.45;;;1.75;;
33279;SDS011;20403;43.114;12.434;2023-04-15T00:04:42;3.75;;;1.83;;
33279;SDS011;20403;43.114;12.434;2023-04-15T00:07:07;3.85;;;1.77;;
33279;SDS011;20403;43.114;12.434;2023-04-15T00:09:33;3.75;;;1.52;;
33279;SDS011;20403;43.114;12.434;2023-04-15T00:11:58;5.95;;;1.50;;
33279;SDS011;20403;43.114;12.434;2023-04-15T00:14:23;2.97;;;1.50;;
33279;SDS011;20403;43.114;12.434;2023-04-15T00:16:50;6.88;;;1.50;;
33279;SDS011;20403;43.114;12.434;2023-04-15T00:19:19;3.67;;;1.45;;
33279;SDS011;20403;43.114;12.434;2023-04-15T00:21:45;8.05;;;2.08;;
33279;SDS011;20403;43.114;12.434;2023-04-15T00:24:11;3.58;;;1.50;;
33279;SDS011;20403;43.114;12.434;2023-04-15T00:26:37;5.30;;;1.70;;
33279;SDS011;20403;43.114;12.434;2023-04-15T00:29:05;4.90;;;1.70;;
33279;SDS011;20403;43.114;12.434;2023-04-15T00:31:30;5.80;;;1.63;;
33279;SDS011;20403;43.114;12.434;2023-04-15T00:33:56;4.38;;;1.40;;
33279;SDS011;20403;43.114;12.434;2023-04-15T00:36:22;5.63;;;1.95;;
33279;SDS011;20403;43.114;12.434;2023-04-15T00:38:48;5.95;;;1.70;;
33279;SDS011;20403;43.114;12.434;2023-04-15T00:41:13;4.40;;;1.48;;
33279;SDS011;20403;43.114;12.434;2023-04-15T00:43:39;10.68;;;2.00;;
33279;SDS011;20403;43.114;12.434;2023-04-15T00:46:05;4.07;;;2.03;;
33279;SDS011;20403;43.114;12.434;2023-04-15T00:48:31;5.30;;;2.38;;
33279;SDS011;20403;43.114;12.434;2023-04-15T00:50:57;6.57;;;1.65;;
33279;SDS011;20403;43.114;12.434;2023-04-15T00:53:23;5.00;;;1.55;;
33279;SDS011;20403;43.114;12.434;2023-04-15T00:55:48;7.45;;;1.58;;
33279;SDS011;20403;43.114;12.434;2023-04-15T00:58:15;5.07;;;1.77;;
33279;SDS011;20403;43.114;12.434;2023-04-15T01:00:41;5.50;;;1.88;;
33279;SDS011;20403;43.114;12.434;2023-04-15T01:03:07;4.53;;;1.35;;
33279;SDS011;20403;43.114;12.434;2023-04-15T01:05:32;3.95;;;1.60;;
33279;SDS011;20403;43.114;12.434;2023-04-15T01:07:58;4.35;;;1.88;;
33279;SDS011;20403;43.114;12.434;2023-04-15T01:10:25;4.72;;;1.48;;
33279;SDS011;20403;43.114;12.434;2023-04-15T01:12:51;3.83;;;1.58;;
33279;SDS011;20403;43.114;12.434;2023-04-15T01:15:16;6.25;;;1.70;;
33279;SDS011;20403;43.114;12.434;2023-04-15T01:17:42;6.75;;;1.70;;
33279;SDS011;20403;43.114;12.434;2023-04-15T01:20:07;8.88;;;1.88;;
33279;SDS011;20403;43.114;12.434;2023-04-15T01:22:36;5.57;;;1.80;;
33279;SDS011;20403;43.114;12.434;2023-04-15T01:25:12;5.53;;;1.52;;
33279;SDS011;20403;43.114;12.434;2023-04-15T01:27:44;5.25;;;2.45;;
33279;SDS011;20403;43.114;12.434;2023-04-15T01:30:09;3.90;;;1.55;;
33279;SDS011;20403;43.114;12.434;2023-04-15T01:32:35;4.93;;;1.80;;
33279;SDS011;20403;43.114;12.434;2023-04-15T01:35:01;4.38;;;1.90;;
33279;SDS011;20403;43.114;12.434;2023-04-15T01:37:27;6.68;;;2.25;;
33279;SDS011;20403;43.114;12.434;2023-04-15T01:39:53;4.97;;;2.08;;
33279;SDS011;20403;43.114;12.434;2023-04-15T01:42:19;8.65;;;2.13;;
33279;SDS011;20403;43.114;12.434;2023-04-15T01:44:45;4.90;;;2.10;;
33279;SDS011;20403;43.114;12.434;2023-04-15T01:47:11;7.30;;;2.47;;
33279;SDS011;20403;43.114;12.434;2023-04-15T01:49:36;6.20;;;2.40;;
33279;SDS011;20403;43.114;12.434;2023-04-15T01:52:01;5.68;;;2.90;;
33279;SDS011;20403;43.114;12.434;2023-04-15T01:54:27;5.35;;;2.03;;
33279;SDS011;20403;43.114;12.434;2023-04-15T01:56:52;5.70;;;2.03;;
33279;SDS011;20403;43.114;12.434;2023-04-15T01:59:18;7.50;;;2.42;;
33279;SDS011;20403;43.114;12.434;2023-04-15T02:01:43;4.32;;;2.03;;
33279;SDS011;20403;43.114;12.434;2023-04-15T02:04:09;7.28;;;2.00;;
33279;SDS011;20403;43.114;12.434;2023-04-15T02:06:40;6.95;;;2.22;;
33279;SDS011;20403;43.114;12.434;2023-04-15T02:09:10;7.28;;;2.22;;
33279;SDS011;20403;43.114;12.434;2023-04-15T02:11:35;5.47;;;2.05;;
33279;SDS011;20403;43.114;12.434;2023-04-15T02:14:03;4.93;;;2.22;;
33279;SDS011;20403;43.114;12.434;2023-04-15T02:16:30;23.85;;;7.63;;
33279;SDS011;20403;43.114;12.434;2023-04-15T02:18:56;5.13;;;3.05;;
33279;SDS011;20403;43.114;12.434;2023-04-15T02:21:22;7.38;;;3.15;;
33279;SDS011;20403;43.114;12.434;2023-04-15T02:23:47;8.32;;;2.75;;
33279;SDS011;20403;43.114;12.434;2023-04-15T02:26:13;6.03;;;2.53;;
33279;SDS011;20403;43.114;12.434;2023-04-15T02:28:38;6.95;;;2.35;;
33279;SDS011;20403;43.114;12.434;2023-04-15T02:31:04;4.88;;;2.40;;
33279;SDS011;20403;43.114;12.434;2023-04-15T02:33:30;16.67;;;2.83;;
33279;SDS011;20403;43.114;12.434;2023-04-15T02:35:56;10.35;;;2.75;;
33279;SDS011;20403;43.114;12.434;2023-04-15T02:38:21;8.95;;;2.58;;
33279;SDS011;20403;43.114;12.434;2023-04-15T02:40:47;5.70;;;2.78;;
33279;SDS011;20403;43.114;12.434;2023-04-15T02:43:14;8.07;;;2.55;;
33279;SDS011;20403;43.114;12.434;2023-04-15T02:45:41;4.78;;;2.35;;
33279;SDS011;20403;43.114;12.434;2023-04-15T02:48:07;6.75;;;2.70;;
33279;SDS011;20403;43.114;12.434;2023-04-15T02:50:33;9.80;;;2.58;;
33279;SDS011;20403;43.114;12.434;2023-04-15T02:52:59;6.13;;;2.92;;
33279;SDS011;20403;43.114;12.434;2023-04-15T02:55:25;9.40;;;2.67;;
33279;SDS011;20403;43.114;12.434;2023-04-15T02:57:51;6.90;;;3.33;;
33279;SDS011;20403;43.114;12.434;2023-04-15T03:00:16;5.40;;;2.75;;
33279;SDS011;20403;43.114;12.434;2023-04-15T03:02:42;7.80;;;2.30;;
33279;SDS011;20403;43.114;12.434;2023-04-15T03:05:12;7.22;;;2.20;;
33279;SDS011;20403;43.114;12.434;2023-04-15T03:07:38;4.25;;;1.92;;
33279;SDS011;20403;43.114;12.434;2023-04-15T03:10:05;5.68;;;1.85;;
33279;SDS011;20403;43.114;12.434;2023-04-15T03:12:31;4.85;;;2.17;;
33279;SDS011;20403;43.114;12.434;2023-04-15T03:14:57;5.05;;;1.77;;
33279;SDS011;20403;43.114;12.434;2023-04-15T03:17:22;3.83;;;1.73;;
33279;SDS011;20403;43.114;12.434;2023-04-15T03:19:47;5.40;;;2.22;;
33279;SDS011;20403;43.114;12.434;2023-04-15T03:22:13;4.97;;;1.67;;
33279;SDS011;20403;43.114;12.434;2023-04-15T03:24:38;7.75;;;2.08;;
33279;SDS011;20403;43.114;12.434;2023-04-15T03:27:03;5.93;;;2.90;;
33279;SDS011;20403;43.114;12.434;2023-04-15T03:29:32;7.47;;;3.13;;
33279;SDS011;20403;43.114;12.434;2023-04-15T03:31:57;6.38;;;2.97;;
33279;SDS011;20403;43.114;12.434;2023-04-15T03:34:22;10.15;;;3.30;;
33279;SDS011;20403;43.114;12.434;2023-04-15T03:36:48;5.30;;;2.35;;
33279;SDS011;20403;43.114;12.434;2023-04-15T03:39:13;7.50;;;3.03;;
33279;SDS011;20403;43.114;12.434;2023-04-15T03:41:39;8.95;;;2.25;;
33279;SDS011;20403;43.114;12.434;2023-04-15T03:44:04;6.90;;;2.58;;
33279;SDS011;20403;43.114;12.434;2023-04-15T03:46:30;6.03;;;2.80;;
33279;SDS011;20403;43.114;12.434;2023-04-15T03:48:56;11.30;;;3.15;;
33279;SDS011;20403;43.114;12.434;2023-04-15T03:51:21;5.35;;;2.67;;
33279;SDS011;20403;43.114;12.434;2023-04-15T03:53:46;11.40;;;2.53;;
33279;SDS011;20403;43.114;12.434;2023-04-15T03:56:12;10.40;;;3.03;;
33279;SDS011;20403;43.114;12.434;2023-04-15T03:58:37;4.60;;;2.28;;
33279;SDS011;20403;43.114;12.434;2023-04-15T04:01:02;4.38;;;2.25;;
33279;SDS011;20403;43.114;12.434;2023-04-15T04:03:28;5.65;;;2.45;;
33279;SDS011;20403;43.114;12.434;2023-04-15T04:05:53;5.72;;;2.10;;
33279;SDS011;20403;43.114;12.434;2023-04-15T04:08:19;5.90;;;1.77;;
33279;SDS011;20403;43.114;12.434;2023-04-15T04:10:45;6.72;;;2.20;;
33279;SDS011;20403;43.114;12.434;2023-04-15T04:13:11;5.97;;;2.00;;
33279;SDS011;20403;43.114;12.434;2023-04-15T04:15:36;4.38;;;1.80;;
33279;SDS011;20403;43.114;12.434;2023-04-15T04:18:01;4.90;;;1.88;;
33279;SDS011;20403;43.114;12.434;2023-04-15T04:20:27;6.72;;;1.85;;
33279;SDS011;20403;43.114;12.434;2023-04-15T04:22:53;4.10;;;2.17;;
33279;SDS011;20403;43.114;12.434;2023-04-15T04:25:18;7.65;;;2.05;;
33279;SDS011;20403;43.114;12.434;2023-04-15T04:27:43;7.35;;;2.25;;
33279;SDS011;20403;43.114;12.434;2023-04-15T04:30:09;9.52;;;2.70;;
33279;SDS011;20403;43.114;12.434;2023-04-15T04:32:35;5.10;;;2.03;;
33279;SDS011;20403;43.114;12.434;2023-04-15T04:35:01;4.75;;;1.80;;
33279;SDS011;20403;43.114;12.434;2023-04-15T04:37:26;6.70;;;1.98;;
33279;SDS011;20403;43.114;12.434;2023-04-15T04:39:52;5.90;;;2.38;;
33279;SDS011;20403;43.114;12.434;2023-04-15T04:42:17;6.05;;;2.17;;
33279;SDS011;20403;43.114;12.434;2023-04-15T04:44:43;13.43;;;3.17;;
33279;SDS011;20403;43.114;12.434;2023-04-15T04:47:08;15.80;;;2.72;;
33279;SDS011;20403;43.114;12.434;2023-04-15T04:49:34;4.88;;;1.70;;
33279;SDS011;20403;43.114;12.434;2023-04-15T04:51:59;5.68;;;2.05;;
33279;SDS011;20403;43.114;12.434;2023-04-15T04:54:25;15.38;;;2.65;;
33279;SDS011;20403;43.114;12.434;2023-04-15T04:56:51;3.47;;;1.90;;
33279;SDS011;20403;43.114;12.434;2023-04-15T04:59:17;6.65;;;2.15;;
33279;SDS011;20403;43.114;12.434;2023-04-15T05:01:42;8.00;;;2.53;;
33279;SDS011;20403;43.114;12.434;2023-04-15T05:04:08;5.82;;;2.13;;
33279;SDS011;20403;43.114;12.434;2023-04-15T05:06:33;4.10;;;2.53;;
33279;SDS011;20403;43.114;12.434;2023-04-15T05:09:00;12.02;;;2.55;;
33279;SDS011;20403;43.114;12.434;2023-04-15T05:11:27;9.50;;;2.80;;
33279;SDS011;20403;43.114;12.434;2023-04-15T05:13:52;6.35;;;2.53;;
33279;SDS011;20403;43.114;12.434;2023-04-15T05:16:18;8.35;;;2.80;;
33279;SDS011;20403;43.114;12.434;2023-04-15T05:18:44;22.85;;;5.07;;
33279;SDS011;20403;43.114;12.434;2023-04-15T05:21:10;10.18;;;2.80;;
33279;SDS011;20403;43.114;12.434;2023-04-15T05:23:35;8.10;;;2.80;;
33279;SDS011;20403;43.114;12.434;2023-04-15T05:26:01;9.70;;;2.50;;
33279;SDS011;20403;43.114;12.434;2023-04-15T05:28:27;9.55;;;2.65;;
33279;SDS011;20403;43.114;12.434;2023-04-15T05:30:53;8.13;;;3.03;;
33279;SDS011;20403;43.114;12.434;2023-04-15T05:33:18;8.88;;;2.60;;
33279;SDS011;20403;43.114;12.434;2023-04-15T05:35:43;17.25;;;2.58;;
33279;SDS011;20403;43.114;12.434;2023-04-15T05:38:09;8.10;;;2.38;;
33279;SDS011;20403;43.114;12.434;2023-04-15T05:40:35;5.45;;;1.95;;
33279;SDS011;20403;43.114;12.434;2023-04-15T05:43:00;11.52;;;2.72;;
33279;SDS011;20403;43.114;12.434;2023-04-15T05:45:26;10.18;;;3.08;;
33279;SDS011;20403;43.114;12.434;2023-04-15T05:47:51;14.93;;;2.80;;
33279;SDS011;20403;43.114;12.434;2023-04-15T05:50:18;9.25;;;2.40;;
33279;SDS011;20403;43.114;12.434;2023-04-15T05:52:44;10.45;;;2.50;;
33279;SDS011;20403;43.114;12.434;2023-04-15T05:55:10;12.38;;;2.72;;
33279;SDS011;20403;43.114;12.434;2023-04-15T05:57:35;8.15;;;2.60;;
33279;SDS011;20403;43.114;12.434;2023-04-15T06:00:02;7.68;;;3.10;;
33279;SDS011;20403;43.114;12.434;2023-04-15T06:02:29;17.52;;;3.35;;
33279;SDS011;20403;43.114;12.434;2023-04-15T06:04:55;14.57;;;3.72;;
33279;SDS011;20403;43.114;12.434;2023-04-15T06:07:21;8.95;;;3.33;;
33279;SDS011;20403;43.114;12.434;2023-04-15T06:09:47;7.18;;;2.92;;
33279;SDS011;20403;43.114;12.434;2023-04-15T06:12:13;8.75;;;3.50;;
33279;SDS011;20403;43.114;12.434;2023-04-15T06:14:39;14.38;;;3.50;;
33279;SDS011;20403;43.114;12.434;2023-04-15T06:17:04;15.13;;;5.20;;
33279;SDS011;20403;43.114;12.434;2023-04-15T06:19:30;15.02;;;4.32;;
33279;SDS011;20403;43.114;12.434;2023-04-15T06:21:56;9.85;;;3.83;;
33279;SDS011;20403;43.114;12.434;2023-04-15T06:24:22;17.08;;;4.72;;
33279;SDS011;20403;43.114;12.434;2023-04-15T06:26:48;9.60;;;3.17;;
33279;SDS011;20403;43.114;12.434;2023-04-15T06:29:13;25.05;;;11.52;;
33279;SDS011;20403;43.114;12.434;2023-04-15T06:31:39;40.33;;;22.65;;
33279;SDS011;20403;43.114;12.434;2023-04-15T06:34:05;29.27;;;17.95;;
33279;SDS011;20403;43.114;12.434;2023-04-15T06:36:31;35.75;;;20.42;;
33279;SDS011;20403;43.114;12.434;2023-04-15T06:38:56;25.30;;;15.55;;
33279;SDS011;20403;43.114;12.434;2023-04-15T06:41:22;23.85;;;11.93;;
33279;SDS011;20403;43.114;12.434;2023-04-15T06:43:47;11.32;;;7.00;;
33279;SDS011;20403;43.114;12.434;2023-04-15T06:46:13;11.13;;;4.88;;
33279;SDS011;20403;43.114;12.434;2023-04-15T06:48:38;12.40;;;4.40;;
33279;SDS011;20403;43.114;12.434;2023-04-15T06:51:04;15.82;;;4.50;;
33279;SDS011;20403;43.114;12.434;2023-04-15T06:53:30;14.65;;;4.20;;
33279;SDS011;20403;43.114;12.434;2023-04-15T06:55:55;9.88;;;3.45;;
33279;SDS011;20403;43.114;12.434;2023-04-15T06:58:21;12.88;;;3.90;;
33279;SDS011;20403;43.114;12.434;2023-04-15T07:00:46;9.82;;;4.20;;
33279;SDS011;20403;43.114;12.434;2023-04-15T07:03:12;6.80;;;3.55;;
33279;SDS011;20403;43.114;12.434;2023-04-15T07:05:39;12.32;;;4.10;;
33279;SDS011;20403;43.114;12.434;2023-04-15T07:08:05;9.40;;;3.63;;
33279;SDS011;20403;43.114;12.434;2023-04-15T07:10:31;14.15;;;3.75;;
33279;SDS011;20403;43.114;12.434;2023-04-15T07:12:57;10.05;;;3.63;;
33279;SDS011;20403;43.114;12.434;2023-04-15T07:15:22;10.40;;;3.67;;
33279;SDS011;20403;43.114;12.434;2023-04-15T07:17:48;9.80;;;3.95;;
33279;SDS011;20403;43.114;12.434;2023-04-15T07:20:13;7.53;;;3.30;;
33279;SDS011;20403;43.114;12.434;2023-04-15T07:22:39;10.40;;;3.88;;
33279;SDS011;20403;43.114;12.434;2023-04-15T07:25:04;14.15;;;5.68;;
33279;SDS011;20403;43.114;12.434;2023-04-15T07:27:30;14.05;;;8.07;;
33279;SDS011;20403;43.114;12.434;2023-04-15T07:29:56;11.88;;;7.28;;
33279;SDS011;20403;43.114;12.434;2023-04-15T07:32:21;13.13;;;3.72;;
33279;SDS011;20403;43.114;12.434;2023-04-15T07:34:47;11.13;;;3.33;;
33279;SDS011;20403;43.114;12.434;2023-04-15T07:37:13;12.15;;;3.47;;
33279;SDS011;20403;43.114;12.434;2023-04-15T07:39:39;12.90;;;3.25;;
33279;SDS011;20403;43.114;12.434;2023-04-15T07:42:04;11.23;;;2.67;;
33279;SDS011;20403;43.114;12.434;2023-04-15T07:44:29;10.90;;;2.55;;
33279;SDS011;20403;43.114;12.434;2023-04-15T07:46:55;7.43;;;1.90;;
33279;SDS011;20403;43.114;12.434;2023-04-15T07:49:21;16.08;;;2.03;;
33279;SDS011;20403;43.114;12.434;2023-04-15T07:51:47;7.85;;;2.45;;
33279;SDS011;20403;43.114;12.434;2023-04-15T07:54:13;13.48;;;2.83;;
33279;SDS011;20403;43.114;12.434;2023-04-15T07:56:39;22.23;;;3.33;;
33279;SDS011;20403;43.114;12.434;2023-04-15T07:59:05;8.25;;;1.85;;
33279;SDS011;20403;43.114;12.434;2023-04-15T08:01:31;9.93;;;2.15;;
33279;SDS011;20403;43.114;12.434;2023-04-15T08:03:59;13.20;;;2.05;;
33279;SDS011;20403;43.114;12.434;2023-04-15T08:06:25;7.25;;;1.75;;
33279;SDS011;20403;43.114;12.434;2023-04-15T08:08:51;12.25;;;2.60;;
33279;SDS011;20403;43.114;12.434;2023-04-15T08:11:18;7.63;;;1.95;;
33279;SDS011;20403;43.114;12.434;2023-04-15T08:13:43;12.65;;;3.35;;
33279;SDS011;20403;43.114;12.434;2023-04-15T08:16:19;9.90;;;2.55;;
33279;SDS011;20403;43.114;12.434;2023-04-15T08:18:46;11.23;;;2.17;;
33279;SDS011;20403;43.114;12.434;2023-04-15T08:21:13;10.02;;;1.73;;
33279;SDS011;20403;43.114;12.434;2023-04-15T08:23:39;7.75;;;1.83;;
33279;SDS011;20403;43.114;12.434;2023-04-15T08:26:04;10.07;;;1.80;;
33279;SDS011;20403;43.114;12.434;2023-04-15T08:28:30;13.35;;;5.05;;
33279;SDS011;20403;43.114;12.434;2023-04-15T08:30:56;13.32;;;4.15;;
33279;SDS011;20403;43.114;12.434;2023-04-15T08:33:21;11.75;;;2.63;;
33279;SDS011;20403;43.114;12.434;2023-04-15T08:35:47;9.40;;;2.38;;
33279;SDS011;20403;43.114;12.434;2023-04-15T08:38:13;10.02;;;2.38;;
33279;SDS011;20403;43.114;12.434;2023-04-15T08:40:42;9.98;;;2.30;;
33279;SDS011;20403;43.114;12.434;2023-04-15T08:43:10;12.63;;;3.17;;
33279;SDS011;20403;43.114;12.434;2023-04-15T08:45:39;8.93;;;1.87;;
33279;SDS011;20403;43.114;12.434;2023-04-15T08:48:05;10.60;;;2.75;;
33279;SDS011;20403;43.114;12.434;2023-04-15T08:50:32;12.07;;;2.17;;
33279;SDS011;20403;43.114;12.434;2023-04-15T08:52:58;9.60;;;2.63;;
33279;SDS011;20403;43.114;12.434;2023-04-15T08:55:28;9.05;;;2.78;;
33279;SDS011;20403;43.114;12.434;2023-04-15T08:58:00;11.88;;;3.05;;
33279;SDS011;20403;43.114;12.434;2023-04-15T09:00:27;10.77;;;2.20;;
33279;SDS011;20403;43.114;12.434;2023-04-15T09:02:54;14.50;;;2.97;;
33279;SDS011;20403;43.114;12.434;2023-04-15T09:05:20;11.55;;;2.15;;
33279;SDS011;20403;43.114;12.434;2023-04-15T09:07:47;8.57;;;2.20;;
33279;SDS011;20403;43.114;12.434;2023-04-15T09:10:12;11.45;;;2.50;;
33279;SDS011;20403;43.114;12.434;2023-04-15T09:12:38;10.23;;;2.20;;
33279;SDS011;20403;43.114;12.434;2023-04-15T09:15:03;7.95;;;1.98;;
33279;SDS011;20403;43.114;12.434;2023-04-15T09:17:29;10.73;;;2.33;;
33279;SDS011;20403;43.114;12.434;2023-04-15T09:20:07;11.23;;;2.60;;
33279;SDS011;20403;43.114;12.434;2023-04-15T09:22:33;16.48;;;3.38;;
33279;SDS011;20403;43.114;12.434;2023-04-15T09:24:59;9.55;;;2.75;;
33279;SDS011;20403;43.114;12.434;2023-04-15T09:27:24;7.30;;;1.98;;
33279;SDS011;20403;43.114;12.434;2023-04-15T09:29:50;13.45;;;2.78;;
33279;SDS011;20403;43.114;12.434;2023-04-15T09:32:17;16.67;;;2.70;;
33279;SDS011;20403;43.114;12.434;2023-04-15T09:34:43;10.85;;;3.25;;
33279;SDS011;20403;43.114;12.434;2023-04-15T09:37:09;12.57;;;2.70;;
33279;SDS011;20403;43.114;12.434;2023-04-15T09:39:47;12.02;;;2.60;;
33279;SDS011;20403;43.114;12.434;2023-04-15T09:42:14;10.73;;;2.83;;
33279;SDS011;20403;43.114;12.434;2023-04-15T09:44:41;34.22;;;12.52;;
33279;SDS011;20403;43.114;12.434;2023-04-15T09:47:07;13.57;;;4.90;;
33279;SDS011;20403;43.114;12.434;2023-04-15T09:49:32;12.38;;;2.78;;
33279;SDS011;20403;43.114;12.434;2023-04-15T09:52:01;13.27;;;4.38;;
33279;SDS011;20403;43.114;12.434;2023-04-15T09:54:37;13.43;;;4.10;;
33279;SDS011;20403;43.114;12.434;2023-04-15T09:57:06;18.92;;;3.75;;
33279;SDS011;20403;43.114;12.434;2023-04-15T09:59:32;13.50;;;3.28;;
33279;SDS011;20403;43.114;12.434;2023-04-15T10:01:58;10.50;;;2.70;;
33279;SDS011;20403;43.114;12.434;2023-04-15T10:04:24;17.08;;;3.30;;
33279;SDS011;20403;43.114;12.434;2023-04-15T10:06:52;18.48;;;3.25;;
33279;SDS011;20403;43.114;12.434;2023-04-15T10:09:17;9.75;;;3.53;;
33279;SDS011;20403;43.114;12.434;2023-04-15T10:11:43;9.52;;;2.55;;
33279;SDS011;20403;43.114;12.434;2023-04-15T10:14:12;14.80;;;4.10;;
33279;SDS011;20403;43.114;12.434;2023-04-15T10:16:39;12.55;;;3.58;;
33279;SDS011;20403;43.114;12.434;2023-04-15T10:19:07;12.60;;;3.38;;
33279;SDS011;20403;43.114;12.434;2023-04-15T10:21:33;17.02;;;4.57;;
33279;SDS011;20403;43.114;12.434;2023-04-15T10:24:01;16.17;;;3.35;;
33279;SDS011;20403;43.114;12.434;2023-04-15T10:26:27;14.95;;;4.22;;
33279;SDS011;20403;43.114;12.434;2023-04-15T10:28:53;16.45;;;3.05;;
33279;SDS011;20403;43.114;12.434;2023-04-15T10:31:19;11.93;;;3.58;;
33279;SDS011;20403;43.114;12.434;2023-04-15T10:33:46;10.07;;;2.97;;
33279;SDS011;20403;43.114;12.434;2023-04-15T10:36:12;16.75;;;5.28;;
33279;SDS011;20403;43.114;12.434;2023-04-15T10:46:33;10.63;;;2.50;;
33279;SDS011;20403;43.114;12.434;2023-04-15T10:49:11;12.77;;;3.20;;
33279;SDS011;20403;43.114;12.434;2023-04-15T10:51:42;10.48;;;3.95;;
33279;SDS011;20403;43.114;12.434;2023-04-15T10:56:47;8.82;;;3.30;;
33279;SDS011;20403;43.114;12.434;2023-04-15T10:59:15;7.78;;;2.92;;
33279;SDS011;20403;43.114;12.434;2023-04-15T11:02:00;10.48;;;2.58;;
33279;SDS011;20403;43.114;12.434;2023-04-15T11:12:45;10.25;;;3.03;;
33279;SDS011;20403;43.114;12.434;2023-04-15T11:18:18;10.90;;;2.80;;
33279;SDS011;20403;43.114;12.434;2023-04-15T11:20:50;8.70;;;2.20;;
33279;SDS011;20403;43.114;12.434;2023-04-15T11:23:18;8.65;;;2.28;;
33279;SDS011;20403;43.114;12.434;2023-04-15T11:25:53;11.35;;;2.75;;
33279;SDS011;20403;43.114;12.434;2023-04-15T11:28:19;8.85;;;2.03;;
33279;SDS011;20403;43.114;12.434;2023-04-15T11:30:44;5.53;;;1.90;;
33279;SDS011;20403;43.114;12.434;2023-04-15T11:33:10;3.38;;;1.65;;
33279;SDS011;20403;43.114;12.434;2023-04-15T11:35:38;4.32;;;1.70;;
33279;SDS011;20403;43.114;12.434;2023-04-15T11:38:09;4.88;;;1.48;;
33279;SDS011;20403;43.114;12.434;2023-04-15T11:40:36;7.35;;;1.90;;
33279;SDS011;20403;43.114;12.434;2023-04-15T11:45:37;14.00;;;6.97;;
33279;SDS011;20403;43.114;12.434;2023-04-15T11:48:12;2.45;;;1.00;;
33279;SDS011;20403;43.114;12.434;2023-04-15T11:50:38;8.38;;;3.80;;
33279;SDS011;20403;43.114;12.434;2023-04-15T11:53:05;2.58;;;1.52;;
33279;SDS011;20403;43.114;12.434;2023-04-15T11:55:44;2.90;;;1.10;;
33279;SDS011;20403;43.114;12.434;2023-04-15T12:03:25;2.95;;;1.13;;
33279;SDS011;20403;43.114;12.434;2023-04-15T12:06:04;3.53;;;1.00;;
33279;SDS011;20403;43.114;12.434;2023-04-15T12:14:05;2.00;;;0.70;;
33279;SDS011;20403;43.114;12.434;2023-04-15T12:16:36;1.65;;;0.80;;
33279;SDS011;20403;43.114;12.434;2023-04-15T12:19:10;1.35;;;0.60;;
33279;SDS011;20403;43.114;12.434;2023-04-15T12:21:38;3.67;;;0.70;;
33279;SDS011;20403;43.114;12.434;2023-04-15T12:24:12;13.95;;;4.57;;
33279;SDS011;20403;43.114;12.434;2023-04-15T12:26:42;2.92;;;0.77;;
33279;SDS011;20403;43.114;12.434;2023-04-15T12:29:10;3.95;;;0.57;;
33279;SDS011;20403;43.114;12.434;2023-04-15T12:31:42;2.38;;;0.82;;
33279;SDS011;20403;43.114;12.434;2023-04-15T12:34:31;0.82;;;0.50;;
33279;SDS011;20403;43.114;12.434;2023-04-15T12:36:59;2.08;;;0.70;;
33279;SDS011;20403;43.114;12.434;2023-04-15T12:39:28;1.13;;;0.55;;
33279;SDS011;20403;43.114;12.434;2023-04-15T12:41:55;5.68;;;0.95;;
33279;SDS011;20403;43.114;12.434;2023-04-15T12:44:23;2.72;;;0.70;;
33279;SDS011;20403;43.114;12.434;2023-04-15T12:46:49;2.42;;;0.70;;
33279;SDS011;20403;43.114;12.434;2023-04-15T12:49:15;1.75;;;0.40;;
33279;SDS011;20403;43.114;12.434;2023-04-15T12:51:43;1.02;;;0.35;;
33279;SDS011;20403;43.114;12.434;2023-04-15T12:54:08;0.93;;;0.52;;
33279;SDS011;20403;43.114;12.434;2023-04-15T12:56:34;0.82;;;0.45;;
33279;SDS011;20403;43.114;12.434;2023-04-15T12:58:59;4.18;;;0.73;;
33279;SDS011;20403;43.114;12.434;2023-04-15T13:01:25;0.60;;;0.32;;
33279;SDS011;20403;43.114;12.434;2023-04-15T13:03:50;1.33;;;0.60;;
33279;SDS011;20403;43.114;12.434;2023-04-15T13:06:16;9.27;;;0.68;;
33279;SDS011;20403;43.114;12.434;2023-04-15T13:08:41;6.35;;;0.57;;
33279;SDS011;20403;43.114;12.434;2023-04-15T13:11:07;1.48;;;0.50;;
33279;SDS011;20403;43.114;12.434;2023-04-15T13:13:32;1.20;;;0.40;;
33279;SDS011;20403;43.114;12.434;2023-04-15T13:15:58;2.53;;;1.05;;
33279;SDS011;20403;43.114;12.434;2023-04-15T13:18:23;92.43;;;5.30;;
33279;SDS011;20403;43.114;12.434;2023-04-15T13:20:49;9.20;;;0.90;;
33279;SDS011;20403;43.114;12.434;2023-04-15T13:23:15;19.15;;;1.15;;
33279;SDS011;20403;43.114;12.434;2023-04-15T13:25:40;1.15;;;0.55;;
33279;SDS011;20403;43.114;12.434;2023-04-15T13:28:06;2.10;;;0.40;;
33279;SDS011;20403;43.114;12.434;2023-04-15T13:30:31;1.27;;;0.50;;
33279;SDS011;20403;43.114;12.434;2023-04-15T13:32:57;0.85;;;0.35;;
33279;SDS011;20403;43.114;12.434;2023-04-15T13:35:22;1.38;;;0.40;;
33279;SDS011;20403;43.114;12.434;2023-04-15T13:37:48;2.40;;;1.27;;
33279;SDS011;20403;43.114;12.434;2023-04-15T13:40:13;2.55;;;1.08;;
33279;SDS011;20403;43.114;12.434;2023-04-15T13:42:39;2.83;;;1.20;;
33279;SDS011;20403;43.114;12.434;2023-04-15T13:45:06;2.25;;;0.70;;
33279;SDS011;20403;43.114;12.434;2023-04-15T13:47:32;1.05;;;0.60;;
33279;SDS011;20403;43.114;12.434;2023-04-15T13:49:58;1.17;;;0.50;;
33279;SDS011;20403;43.114;12.434;2023-04-15T13:52:23;1.63;;;0.50;;
33279;SDS011;20403;43.114;12.434;2023-04-15T13:54:49;0.93;;;0.45;;
33279;SDS011;20403;43.114;12.434;2023-04-15T13:57:14;1.05;;;0.63;;
33279;SDS011;20403;43.114;12.434;2023-04-15T13:59:39;3.33;;;0.90;;
33279;SDS011;20403;43.114;12.434;2023-04-15T14:02:05;3.28;;;1.13;;
33279;SDS011;20403;43.114;12.434;2023-04-15T14:04:31;5.80;;;0.95;;
33279;SDS011;20403;43.114;12.434;2023-04-15T14:06:56;1.23;;;0.55;;
33279;SDS011;20403;43.114;12.434;2023-04-15T14:09:22;0.40;;;0.28;;
33279;SDS011;20403;43.114;12.434;2023-04-15T14:11:48;0.52;;;0.17;;
33279;SDS011;20403;43.114;12.434;2023-04-15T14:14:14;1.70;;;0.30;;
33279;SDS011;20403;43.114;12.434;2023-04-15T14:16:40;1.15;;;0.20;;
33279;SDS011;20403;43.114;12.434;2023-04-15T14:19:05;0.40;;;0.20;;
33279;SDS011;20403;43.114;12.434;2023-04-15T14:21:31;0.40;;;0.20;;
33279;SDS011;20403;43.114;12.434;2023-04-15T14:23:56;1.88;;;0.30;;
33279;SDS011;20403;43.114;12.434;2023-04-15T14:26:22;2.20;;;0.47;;
33279;SDS011;20403;43.114;12.434;2023-04-15T14:28:47;1.13;;;0.60;;
33279;SDS011;20403;43.114;12.434;2023-04-15T14:31:13;0.70;;;0.40;;
33279;SDS011;20403;43.114;12.434;2023-04-15T14:33:38;2.78;;;0.63;;
33279;SDS011;20403;43.114;12.434;2023-04-15T14:36:05;1.95;;;0.32;;
33279;SDS011;20403;43.114;12.434;2023-04-15T14:38:32;2.53;;;0.45;;
33279;SDS011;20403;43.114;12.434;2023-04-15T14:41:02;0.30;;;0.20;;
33279;SDS011;20403;43.114;12.434;2023-04-15T14:43:30;0.60;;;0.38;;
33279;SDS011;20403;43.114;12.434;2023-04-15T14:45:57;0.47;;;0.28;;
33279;SDS011;20403;43.114;12.434;2023-04-15T14:48:22;0.60;;;0.17;;
33279;SDS011;20403;43.114;12.434;2023-04-15T14:50:47;1.33;;;0.47;;
33279;SDS011;20403;43.114;12.434;2023-04-15T14:53:13;1.70;;;0.30;;
33279;SDS011;20403;43.114;12.434;2023-04-15T14:55:38;3.60;;;0.20;;
33279;SDS011;20403;43.114;12.434;2023-04-15T14:58:05;0.80;;;0.30;;
33279;SDS011;20403;43.114;12.434;2023-04-15T15:00:32;2.50;;;0.80;;
33279;SDS011;20403;43.114;12.434;2023-04-15T15:02:58;1.85;;;0.60;;